createdAt,value
2015-10-29T00:00:04.357Z,73380
2015-10-29T00:00:16.701Z,73390
2015-10-29T00:00:29.061Z,73378
2015-10-29T00:00:41.423Z,73384
2015-10-29T00:00:53.751Z,73381
2015-10-29T00:01:06.079Z,73378
2015-10-29T00:01:18.423Z,73387
2015-10-29T00:01:30.751Z,73375
2015-10-29T00:01:43.081Z,73384
2015-10-29T00:01:55.425Z,73375
2015-10-29T00:02:07.050Z,73386
2015-10-29T00:02:19.425Z,73371
2015-10-29T00:02:31.784Z,73382
2015-10-29T00:02:44.147Z,73379
2015-10-29T00:02:56.459Z,73381
2015-10-29T00:03:08.803Z,73376
2015-10-29T00:03:21.131Z,73381
2015-10-29T00:03:33.475Z,73383
2015-10-29T00:03:45.789Z,73372
2015-10-29T00:03:58.133Z,73379
2015-10-29T00:04:10.492Z,73374
2015-10-29T00:04:22.852Z,73384
2015-10-29T00:04:35.211Z,73374
2015-10-29T00:04:47.575Z,73382
2015-10-29T00:04:59.918Z,73372
2015-10-29T00:05:12.262Z,73383
2015-10-29T00:05:24.590Z,73372
2015-10-29T00:05:36.215Z,73379
2015-10-29T00:05:48.545Z,73371
2015-10-29T00:06:00.889Z,73376
2015-10-29T00:06:13.248Z,73372
2015-10-29T00:06:25.608Z,73377
2015-10-29T00:06:37.936Z,73371
2015-10-29T00:06:50.282Z,73375
2015-10-29T00:07:02.610Z,73371
2015-10-29T00:07:14.954Z,73375
2015-10-29T00:07:27.297Z,73375
2015-10-29T00:07:39.625Z,73376
2015-10-29T00:07:51.973Z,73374
2015-10-29T00:08:04.348Z,73374
2015-10-29T00:08:16.692Z,73372
2015-10-29T00:08:29.067Z,73382
2015-10-29T00:08:41.381Z,73375
2015-10-29T00:08:53.710Z,73381
2015-10-29T00:09:06.022Z,73372
2015-10-29T00:09:18.335Z,73378
2015-10-29T00:09:30.678Z,73373
2015-10-29T00:09:43.024Z,73377
2015-10-29T00:09:55.383Z,73372
2015-10-29T00:10:07.727Z,73377
2015-10-29T00:10:20.071Z,73373
2015-10-29T00:10:32.399Z,73374
2015-10-29T00:10:44.731Z,73375
2015-10-29T00:10:57.059Z,73375
2015-10-29T00:11:09.403Z,73377
2015-10-29T00:11:21.731Z,73373
2015-10-29T00:11:34.091Z,73378
2015-10-29T00:11:46.436Z,73371
2015-10-29T00:11:58.749Z,73375
2015-10-29T00:12:11.077Z,73374
2015-10-29T00:12:23.421Z,73373
2015-10-29T00:12:35.764Z,73373
2015-10-29T00:12:48.111Z,73374
2015-10-29T00:13:00.455Z,73376
2015-10-29T00:13:12.658Z,73372
2015-10-29T00:13:25.017Z,73379
2015-10-29T00:13:37.392Z,73371
2015-10-29T00:13:49.724Z,73370
2015-10-29T00:14:02.052Z,73375
2015-10-29T00:14:14.395Z,73369
2015-10-29T00:14:26.739Z,73375
2015-10-29T00:14:39.067Z,73376
2015-10-29T00:14:51.397Z,73373
2015-10-29T00:15:03.741Z,73376
2015-10-29T00:15:16.116Z,73372
2015-10-29T00:15:28.476Z,73377
2015-10-29T00:15:40.819Z,73369
2015-10-29T00:15:53.166Z,73371
2015-10-29T00:16:05.494Z,73372
2015-10-29T00:16:17.822Z,73375
2015-10-29T00:16:30.166Z,73372
2015-10-29T00:16:42.528Z,73376
2015-10-29T00:16:54.857Z,73375
2015-10-29T00:17:07.216Z,73368
2015-10-29T00:17:19.591Z,73378
2015-10-29T00:17:31.919Z,73376
2015-10-29T00:17:44.249Z,73375
2015-10-29T00:17:56.609Z,73375
2015-10-29T00:18:08.937Z,73372
2015-10-29T00:18:21.280Z,73375
2015-10-29T00:18:33.609Z,73373
2015-10-29T00:18:45.987Z,73377
2015-10-29T00:18:58.315Z,73378
2015-10-29T00:19:10.643Z,73373
2015-10-29T00:19:22.815Z,73377
2015-10-29T00:19:35.143Z,73368
2015-10-29T00:19:47.474Z,73374
2015-10-29T00:19:59.818Z,73368
2015-10-29T00:20:12.161Z,73375
2015-10-29T00:20:24.380Z,73371
2015-10-29T00:20:36.724Z,73376
2015-10-29T00:20:49.055Z,73372
2015-10-29T00:21:00.680Z,73371
2015-10-29T00:21:12.868Z,73375
2015-10-29T00:21:25.211Z,73376
2015-10-29T00:21:37.539Z,73373
2015-10-29T00:21:49.854Z,73374
2015-10-29T00:22:02.198Z,73370
2015-10-29T00:22:14.557Z,73374
2015-10-29T00:22:26.760Z,73371
2015-10-29T00:22:39.104Z,73370
2015-10-29T00:22:51.466Z,73376
2015-10-29T00:23:03.107Z,73372
2015-10-29T00:23:15.482Z,73374
2015-10-29T00:23:27.810Z,73370
2015-10-29T00:23:40.138Z,73372
2015-10-29T00:23:52.454Z,73371
2015-10-29T00:24:04.797Z,73372
2015-10-29T00:24:17.141Z,73371
2015-10-29T00:24:29.501Z,73373
2015-10-29T00:24:41.846Z,73369
2015-10-29T00:24:54.237Z,73373
2015-10-29T00:25:06.565Z,73374
2015-10-29T00:25:18.893Z,73368
2015-10-29T00:25:31.221Z,73375
2015-10-29T00:25:43.552Z,73366
2015-10-29T00:25:55.896Z,73375
2015-10-29T00:26:08.240Z,73369
2015-10-29T00:26:20.615Z,73374
2015-10-29T00:26:32.943Z,73373
2015-10-29T00:26:45.273Z,73367
2015-10-29T00:26:57.601Z,73374
2015-10-29T00:27:09.929Z,73371
2015-10-29T00:27:22.242Z,73371
2015-10-29T00:27:34.570Z,73369
2015-10-29T00:27:46.932Z,73374
2015-10-29T00:27:59.292Z,73369
2015-10-29T00:28:11.620Z,73370
2015-10-29T00:28:23.948Z,73376
2015-10-29T00:28:36.292Z,73364
2015-10-29T00:28:48.623Z,73374
2015-10-29T00:29:00.967Z,73365
2015-10-29T00:29:13.326Z,73375
2015-10-29T00:29:25.654Z,73366
2015-10-29T00:29:37.998Z,73370
2015-10-29T00:29:50.328Z,73370
2015-10-29T00:30:02.703Z,73369
2015-10-29T00:30:15.062Z,73372
2015-10-29T00:30:27.406Z,73372
2015-10-29T00:30:39.734Z,73368
2015-10-29T00:30:52.065Z,73373
2015-10-29T00:31:04.394Z,73370
2015-10-29T00:31:16.722Z,73373
2015-10-29T00:31:29.065Z,73369
2015-10-29T00:31:41.409Z,73371
2015-10-29T00:31:53.772Z,73376
2015-10-29T00:32:06.115Z,73367
2015-10-29T00:32:18.443Z,73375
2015-10-29T00:32:30.772Z,73363
2015-10-29T00:32:43.103Z,73371
2015-10-29T00:32:55.431Z,73364
2015-10-29T00:33:07.759Z,73370
2015-10-29T00:33:20.103Z,73373
2015-10-29T00:33:32.446Z,73367
2015-10-29T00:33:44.120Z,73371
2015-10-29T00:33:56.464Z,73363
2015-10-29T00:34:08.777Z,73368
2015-10-29T00:34:21.120Z,73365
2015-10-29T00:34:33.448Z,73369
2015-10-29T00:34:45.780Z,73365
2015-10-29T00:34:58.123Z,73368
2015-10-29T00:35:10.467Z,73370
2015-10-29T00:35:22.826Z,73370
2015-10-29T00:35:35.186Z,73369
2015-10-29T00:35:47.532Z,73367
2015-10-29T00:35:59.860Z,73372
2015-10-29T00:36:12.188Z,73365
2015-10-29T00:36:24.516Z,73363
2015-10-29T00:36:36.860Z,73366
2015-10-29T00:36:48.473Z,73363
2015-10-29T00:37:00.817Z,73368
2015-10-29T00:37:13.161Z,73366
2015-10-29T00:37:24.801Z,73361
2015-10-29T00:37:37.129Z,73366
2015-10-29T00:38:03.631Z,73368
2015-10-29T00:38:15.975Z,73362
2015-10-29T00:38:28.303Z,73359
2015-10-29T00:38:40.631Z,73367
2015-10-29T00:38:52.978Z,73363
2015-10-29T00:39:05.337Z,73362
2015-10-29T00:39:17.728Z,73363
2015-10-29T00:39:30.072Z,73360
2015-10-29T00:39:42.403Z,73362
2015-10-29T00:39:54.747Z,73357
2015-10-29T00:40:07.090Z,73367
2015-10-29T00:40:19.419Z,73360
2015-10-29T00:40:31.044Z,73365
2015-10-29T00:40:43.390Z,73357
2015-10-29T00:40:55.750Z,73367
2015-10-29T00:41:08.093Z,73363
2015-10-29T00:41:20.437Z,73364
2015-10-29T00:41:32.765Z,73370
2015-10-29T00:41:45.111Z,73360
2015-10-29T00:41:57.455Z,73366
2015-10-29T00:42:09.767Z,73356
2015-10-29T00:42:22.111Z,73369
2015-10-29T00:42:34.455Z,73359
2015-10-29T00:43:00.973Z,73362
2015-10-29T00:43:27.458Z,73365
2015-10-29T00:43:39.786Z,73359
2015-10-29T00:43:52.133Z,73359
2015-10-29T00:44:04.445Z,73364
2015-10-29T00:44:16.648Z,73356
2015-10-29T00:44:28.976Z,73366
2015-10-29T00:44:41.164Z,73352
2015-10-29T00:44:53.494Z,73367
2015-10-29T00:45:05.807Z,73354
2015-10-29T00:45:18.135Z,73360
2015-10-29T00:45:29.760Z,73357
2015-10-29T00:45:42.088Z,73359
2015-10-29T00:45:54.278Z,73362
2015-10-29T00:46:06.622Z,73353
2015-10-29T00:46:18.981Z,73363
2015-10-29T00:46:31.356Z,73348
2015-10-29T00:46:43.702Z,73363
2015-10-29T00:46:56.015Z,73354
2015-10-29T00:47:08.343Z,73364
2015-10-29T00:47:20.671Z,73350
2015-10-29T00:47:32.999Z,73356
2015-10-29T00:47:45.346Z,73353
2015-10-29T00:47:57.690Z,73354
2015-10-29T00:48:10.049Z,73359
2015-10-29T00:48:22.377Z,73346
2015-10-29T00:48:34.705Z,73361
2015-10-29T00:48:47.036Z,73348
2015-10-29T00:48:59.364Z,73359
2015-10-29T00:49:11.693Z,73353
2015-10-29T00:49:24.036Z,73357
2015-10-29T00:49:36.396Z,73351
2015-10-29T00:49:48.758Z,73356
2015-10-29T00:50:01.071Z,73353
2015-10-29T00:50:13.414Z,73357
2015-10-29T00:50:25.742Z,73358
2015-10-29T00:50:38.071Z,73351
2015-10-29T00:50:50.385Z,73359
2015-10-29T00:51:02.729Z,73353
2015-10-29T00:51:15.073Z,73356
2015-10-29T00:51:27.432Z,73360
2015-10-29T00:51:39.791Z,73349
2015-10-29T00:51:52.107Z,73361
2015-10-29T00:52:04.451Z,73354
2015-10-29T00:52:16.794Z,73360
2015-10-29T00:52:29.138Z,73361
2015-10-29T00:52:41.513Z,73355
2015-10-29T00:52:53.891Z,73360
2015-10-29T00:53:06.235Z,73358
2015-10-29T00:53:18.563Z,73358
2015-10-29T00:53:30.891Z,73365
2015-10-29T00:53:43.221Z,73357
2015-10-29T00:53:55.549Z,73359
2015-10-29T00:54:07.893Z,73364
2015-10-29T00:54:20.221Z,73355
2015-10-29T00:54:32.581Z,73361
2015-10-29T00:54:44.943Z,73357
2015-10-29T00:54:57.302Z,73354
2015-10-29T00:55:09.630Z,73369
2015-10-29T00:55:21.943Z,73357
2015-10-29T00:55:34.271Z,73361
2015-10-29T00:55:46.602Z,73365
2015-10-29T00:55:58.946Z,73362
2015-10-29T00:56:11.290Z,73362
2015-10-29T00:56:23.649Z,73367
2015-10-29T00:56:36.024Z,73357
2015-10-29T00:56:48.432Z,73367
2015-10-29T00:57:00.745Z,73365
2015-10-29T00:57:13.073Z,73365
2015-10-29T00:57:25.401Z,73369
2015-10-29T00:57:37.729Z,73357
2015-10-29T00:57:50.060Z,73366
2015-10-29T00:58:02.388Z,73363
2015-10-29T00:58:14.732Z,73365
2015-10-29T00:58:27.092Z,73363
2015-10-29T00:58:39.451Z,73363
2015-10-29T00:58:51.798Z,73367
2015-10-29T00:59:04.126Z,73366
2015-10-29T00:59:16.298Z,73361
2015-10-29T00:59:28.626Z,73363
2015-10-29T00:59:40.970Z,73360
2015-10-29T00:59:53.301Z,73364
2015-10-29T01:00:05.644Z,73367
2015-10-29T01:00:17.269Z,73361
2015-10-29T01:00:29.473Z,73365
2015-10-29T01:00:41.660Z,73357
2015-10-29T01:00:53.990Z,73366
2015-10-29T01:01:06.334Z,73360
2015-10-29T01:01:18.662Z,73363
2015-10-29T01:01:30.834Z,73358
2015-10-29T01:01:43.165Z,73361
2015-10-29T01:01:55.509Z,73364
2015-10-29T01:02:07.853Z,73361
2015-10-29T01:02:20.196Z,73365
2015-10-29T01:02:32.509Z,73370
2015-10-29T01:02:44.684Z,73363
2015-10-29T01:02:57.012Z,73361
2015-10-29T01:03:09.340Z,73365
2015-10-29T01:03:21.668Z,73365
2015-10-29T01:03:33.996Z,73364
2015-10-29T01:03:46.358Z,73369
2015-10-29T01:03:58.717Z,73360
2015-10-29T01:04:11.076Z,73366
2015-10-29T01:04:23.295Z,73359
2015-10-29T01:04:35.623Z,73365
2015-10-29T01:04:47.954Z,73361
2015-10-29T01:05:00.267Z,73365
2015-10-29T01:05:12.626Z,73357
2015-10-29T01:05:24.954Z,73359
2015-10-29T01:05:37.298Z,73359
2015-10-29T01:05:49.691Z,73358
2015-10-29T01:06:02.034Z,73359
2015-10-29T01:06:14.363Z,73355
2015-10-29T01:06:26.691Z,73356
2015-10-29T01:06:39.003Z,73356
2015-10-29T01:06:51.334Z,73362
2015-10-29T01:07:03.694Z,73355
2015-10-29T01:07:16.022Z,73354
2015-10-29T01:07:28.366Z,73362
2015-10-29T01:07:40.725Z,73359
2015-10-29T01:07:53.087Z,73361
2015-10-29T01:08:05.415Z,73366
2015-10-29T01:08:17.759Z,73353
2015-10-29T01:08:30.087Z,73357
2015-10-29T01:08:42.431Z,73354
2015-10-29T01:08:54.778Z,73356
2015-10-29T01:09:07.153Z,73354
2015-10-29T01:09:19.481Z,73348
2015-10-29T01:09:31.809Z,73363
2015-10-29T01:09:44.139Z,73349
2015-10-29T01:09:56.467Z,73360
2015-10-29T01:10:08.795Z,73351
2015-10-29T01:10:21.139Z,73350
2015-10-29T01:10:33.499Z,73362
2015-10-29T01:10:45.861Z,73347
2015-10-29T01:10:58.189Z,73360
2015-10-29T01:11:10.517Z,73349
2015-10-29T01:11:22.845Z,73355
2015-10-29T01:11:35.173Z,73359
2015-10-29T01:11:47.520Z,73355
2015-10-29T01:11:59.848Z,73355
2015-10-29T01:12:12.192Z,73359
2015-10-29T01:12:24.551Z,73349
2015-10-29T01:12:36.895Z,73360
2015-10-29T01:12:49.241Z,73356
2015-10-29T01:13:01.569Z,73348
2015-10-29T01:13:13.897Z,73363
2015-10-29T01:13:26.225Z,73350
2015-10-29T01:13:38.553Z,73361
2015-10-29T01:13:50.900Z,73360
2015-10-29T01:14:03.260Z,73351
2015-10-29T01:14:15.603Z,73357
2015-10-29T01:14:27.931Z,73347
2015-10-29T01:14:40.244Z,73356
2015-10-29T01:14:52.575Z,73355
2015-10-29T01:15:04.919Z,73350
2015-10-29T01:15:17.247Z,73360
2015-10-29T01:15:29.591Z,73344
2015-10-29T01:15:41.950Z,73357
2015-10-29T01:15:54.312Z,73355
2015-10-29T01:16:06.656Z,73349
2015-10-29T01:16:18.969Z,73354
2015-10-29T01:16:31.297Z,73354
2015-10-29T01:16:43.643Z,73354
2015-10-29T01:16:55.971Z,73349
2015-10-29T01:17:08.314Z,73355
2015-10-29T01:17:20.658Z,73350
2015-10-29T01:17:33.033Z,73350
2015-10-29T01:17:45.364Z,73350
2015-10-29T01:17:57.692Z,73350
2015-10-29T01:18:10.036Z,73356
2015-10-29T01:18:22.364Z,73347
2015-10-29T01:18:34.692Z,73355
2015-10-29T01:18:46.867Z,73354
2015-10-29T01:18:59.195Z,73353
2015-10-29T01:19:11.539Z,73358
2015-10-29T01:19:23.899Z,73349
2015-10-29T01:19:36.242Z,73359
2015-10-29T01:19:48.401Z,73353
2015-10-29T01:20:00.713Z,73355
2015-10-29T01:20:13.041Z,73360
2015-10-29T01:20:25.354Z,73356
2015-10-29T01:20:37.697Z,73363
2015-10-29T01:20:50.029Z,73353
2015-10-29T01:21:02.388Z,73357
2015-10-29T01:21:14.747Z,73363
2015-10-29T01:21:27.091Z,73357
2015-10-29T01:21:39.419Z,73366
2015-10-29T01:21:51.749Z,73354
2015-10-29T01:22:03.374Z,73360
2015-10-29T01:22:14.984Z,73356
2015-10-29T01:22:27.312Z,73360
2015-10-29T01:22:39.656Z,73363
2015-10-29T01:22:52.159Z,73353
2015-10-29T01:23:19.768Z,73365
2015-10-29T01:23:31.940Z,73359
2015-10-29T01:23:43.549Z,73360
2015-10-29T01:23:55.880Z,73367
2015-10-29T01:24:08.224Z,73355
2015-10-29T01:24:20.583Z,73364
2015-10-29T01:24:32.927Z,73360
2015-10-29T01:24:45.257Z,73354
2015-10-29T01:24:57.601Z,73364
2015-10-29T01:25:09.929Z,73354
2015-10-29T01:25:22.257Z,73366
2015-10-29T01:25:34.601Z,73357
2015-10-29T01:25:46.963Z,73362
2015-10-29T01:25:59.307Z,73359
2015-10-29T01:26:11.635Z,73357
2015-10-29T01:26:23.979Z,73356
2015-10-29T01:26:36.307Z,73354
2015-10-29T01:26:48.638Z,73362
2015-10-29T01:27:00.966Z,73347
2015-10-29T01:27:13.310Z,73356
2015-10-29T01:27:25.654Z,73359
2015-10-29T01:27:37.310Z,73355
2015-10-29T01:27:49.673Z,73366
2015-10-29T01:28:02.016Z,73354
2015-10-29T01:28:14.329Z,73359
2015-10-29T01:28:26.657Z,73352
2015-10-29T01:28:38.985Z,73356
2015-10-29T01:28:51.316Z,73358
2015-10-29T01:29:03.676Z,73357
2015-10-29T01:29:16.019Z,73360
2015-10-29T01:29:28.379Z,73348
2015-10-29T01:29:40.738Z,73364
2015-10-29T01:29:53.068Z,73358
2015-10-29T01:30:05.396Z,73358
2015-10-29T01:30:17.709Z,73363
2015-10-29T01:30:30.053Z,73358
2015-10-29T01:30:42.381Z,73357
2015-10-29T01:30:54.727Z,73356
2015-10-29T01:31:07.071Z,73360
2015-10-29T01:31:19.274Z,73357
2015-10-29T01:31:31.649Z,73358
2015-10-29T01:31:43.977Z,73357
2015-10-29T01:31:56.309Z,73365
2015-10-29T01:32:08.637Z,73353
2015-10-29T01:32:20.965Z,73355
2015-10-29T01:32:33.293Z,73356
2015-10-29T01:32:45.639Z,73352
2015-10-29T01:32:57.982Z,73364
2015-10-29T01:33:10.342Z,73356
2015-10-29T01:33:22.670Z,73365
2015-10-29T01:33:34.998Z,73358
2015-10-29T01:33:47.314Z,73360
2015-10-29T01:33:59.657Z,73361
2015-10-29T01:34:11.970Z,73358
2015-10-29T01:34:24.314Z,73363
2015-10-29T01:34:36.657Z,73364
2015-10-29T01:34:49.051Z,73357
2015-10-29T01:35:01.379Z,73361
2015-10-29T01:35:13.707Z,73356
2015-10-29T01:35:26.035Z,73354
2015-10-29T01:35:38.379Z,73365
2015-10-29T01:35:50.709Z,73355
2015-10-29T01:36:03.037Z,73353
2015-10-29T01:36:15.381Z,73357
2015-10-29T01:36:27.740Z,73356
2015-10-29T01:36:40.115Z,73353
2015-10-29T01:36:52.431Z,73358
2015-10-29T01:37:04.775Z,73353
2015-10-29T01:37:17.103Z,73354
2015-10-29T01:37:29.462Z,73354
2015-10-29T01:37:41.837Z,73352
2015-10-29T01:37:54.199Z,73359
2015-10-29T01:38:06.558Z,73352
2015-10-29T01:38:18.886Z,73347
2015-10-29T01:38:31.214Z,73354
2015-10-29T01:38:43.542Z,73350
2015-10-29T01:38:55.858Z,73347
2015-10-29T01:39:08.467Z,73351
2015-10-29T01:39:20.811Z,73352
2015-10-29T01:39:33.155Z,73342
2015-10-29T01:39:45.517Z,73354
2015-10-29T01:39:57.861Z,73346
2015-10-29T01:40:10.189Z,73350
2015-10-29T01:40:22.517Z,73352
2015-10-29T01:40:34.861Z,73348
2015-10-29T01:40:47.191Z,73351
2015-10-29T01:40:59.878Z,73353
2015-10-29T01:41:12.222Z,73348
2015-10-29T01:41:24.566Z,73349
2015-10-29T01:41:36.925Z,73348
2015-10-29T01:41:49.319Z,73346
2015-10-29T01:42:01.647Z,73347
2015-10-29T01:42:13.975Z,73343
2015-10-29T01:42:26.303Z,73345
2015-10-29T01:42:38.631Z,73343
2015-10-29T01:42:50.291Z,73345
2015-10-29T01:43:01.916Z,73345
2015-10-29T01:43:14.259Z,73346
2015-10-29T01:43:26.634Z,73345
2015-10-29T01:43:38.947Z,73344
2015-10-29T01:43:51.278Z,73350
2015-10-29T01:44:03.606Z,73341
2015-10-29T01:44:15.231Z,73347
2015-10-29T01:44:27.544Z,73342
2015-10-29T01:44:39.887Z,73344
2015-10-29T01:44:52.233Z,73348
2015-10-29T01:45:04.593Z,73340
2015-10-29T01:45:16.780Z,73352
2015-10-29T01:45:29.108Z,73347
2015-10-29T01:45:41.436Z,73346
2015-10-29T01:45:53.752Z,73347
2015-10-29T01:46:06.096Z,73344
2015-10-29T01:46:18.424Z,73339
2015-10-29T01:46:30.767Z,73350
2015-10-29T01:46:43.111Z,73342
2015-10-29T01:46:55.474Z,73338
2015-10-29T01:47:07.786Z,73349
2015-10-29T01:47:20.114Z,73343
2015-10-29T01:47:32.442Z,73341
2015-10-29T01:47:44.786Z,73337
2015-10-29T01:47:57.117Z,73338
2015-10-29T01:48:09.461Z,73344
2015-10-29T01:48:21.789Z,73337
2015-10-29T01:48:34.148Z,73344
2015-10-29T01:48:46.510Z,73341
2015-10-29T01:48:58.838Z,73340
2015-10-29T01:49:11.182Z,73340
2015-10-29T01:49:23.494Z,73346
2015-10-29T01:49:35.838Z,73345
2015-10-29T01:49:48.169Z,73343
2015-10-29T01:50:00.497Z,73345
2015-10-29T01:50:12.841Z,73348
2015-10-29T01:50:25.200Z,73351
2015-10-29T01:50:37.575Z,73347
2015-10-29T01:50:49.938Z,73351
2015-10-29T01:51:02.250Z,73347
2015-10-29T01:51:14.578Z,73343
2015-10-29T01:51:26.906Z,73344
2015-10-29T01:51:39.250Z,73346
2015-10-29T01:51:50.862Z,73347
2015-10-29T01:52:03.205Z,73345
2015-10-29T01:52:15.549Z,73344
2015-10-29T01:52:27.908Z,73344
2015-10-29T01:52:40.283Z,73338
2015-10-29T01:52:52.630Z,73337
2015-10-29T01:53:04.990Z,73344
2015-10-29T01:53:17.318Z,73338
2015-10-29T01:53:29.630Z,73344
2015-10-29T01:53:42.005Z,73338
2015-10-29T01:53:54.352Z,73336
2015-10-29T01:54:06.696Z,73349
2015-10-29T01:54:19.039Z,73341
2015-10-29T01:54:31.368Z,73344
2015-10-29T01:54:43.696Z,73346
2015-10-29T01:54:56.010Z,73346
2015-10-29T01:55:08.338Z,73350
2015-10-29T01:55:20.651Z,73351
2015-10-29T01:55:32.995Z,73345
2015-10-29T01:55:45.341Z,73347
2015-10-29T01:55:57.701Z,73350
2015-10-29T01:56:10.091Z,73350
2015-10-29T01:56:22.419Z,73350
2015-10-29T01:56:34.748Z,73353
2015-10-29T01:56:46.921Z,73352
2015-10-29T01:56:59.250Z,73349
2015-10-29T01:57:11.578Z,73351
2015-10-29T01:57:23.921Z,73353
2015-10-29T01:57:36.250Z,73350
2015-10-29T01:57:48.612Z,73352
2015-10-29T01:58:00.940Z,73352
2015-10-29T01:58:13.268Z,73351
2015-10-29T01:58:25.596Z,73352
2015-10-29T01:58:37.924Z,73352
2015-10-29T01:58:50.271Z,73348
2015-10-29T01:59:02.599Z,73351
2015-10-29T01:59:14.927Z,73350
2015-10-29T01:59:27.302Z,73352
2015-10-29T01:59:39.646Z,73350
2015-10-29T01:59:51.976Z,73350
2015-10-29T02:00:04.320Z,73349
2015-10-29T02:00:16.648Z,73352
2015-10-29T02:00:28.961Z,73351
2015-10-29T02:00:41.289Z,73355
2015-10-29T02:00:53.636Z,73350
2015-10-29T02:01:05.979Z,73351
2015-10-29T02:01:18.339Z,73351
2015-10-29T02:01:30.714Z,73354
2015-10-29T02:01:43.042Z,73350
2015-10-29T02:01:55.373Z,73354
2015-10-29T02:02:07.701Z,73351
2015-10-29T02:02:20.045Z,73354
2015-10-29T02:02:32.545Z,73353
2015-10-29T02:02:44.889Z,73352
2015-10-29T02:02:57.282Z,73350
2015-10-29T02:03:09.626Z,73352
2015-10-29T02:03:21.954Z,73356
2015-10-29T02:03:34.282Z,73352
2015-10-29T02:03:46.612Z,73353
2015-10-29T02:03:58.940Z,73349
2015-10-29T02:04:11.253Z,73354
2015-10-29T02:04:23.440Z,73348
2015-10-29T02:04:35.784Z,73351
2015-10-29T02:04:48.131Z,73349
2015-10-29T02:05:00.459Z,73349
2015-10-29T02:05:12.803Z,73352
2015-10-29T02:05:25.131Z,73344
2015-10-29T02:05:37.459Z,73351
2015-10-29T02:05:49.790Z,73348
2015-10-29T02:06:02.134Z,73354
2015-10-29T02:06:14.509Z,73350
2015-10-29T02:06:26.134Z,73351
2015-10-29T02:06:38.462Z,73347
2015-10-29T02:06:50.793Z,73348
2015-10-29T02:07:03.121Z,73351
2015-10-29T02:07:15.434Z,73347
2015-10-29T02:07:27.762Z,73351
2015-10-29T02:07:40.121Z,73351
2015-10-29T02:07:52.468Z,73352
2015-10-29T02:08:04.812Z,73355
2015-10-29T02:08:17.140Z,73347
2015-10-29T02:08:29.468Z,73350
2015-10-29T02:08:41.796Z,73355
2015-10-29T02:08:54.126Z,73343
2015-10-29T02:09:06.454Z,73351
2015-10-29T02:09:18.798Z,73347
2015-10-29T02:09:31.142Z,73351
2015-10-29T02:09:43.486Z,73354
2015-10-29T02:09:55.817Z,73347
2015-10-29T02:10:08.145Z,73349
2015-10-29T02:10:20.473Z,73349
2015-10-29T02:10:32.801Z,73348
2015-10-29T02:10:45.145Z,73345
2015-10-29T02:10:57.507Z,73352
2015-10-29T02:11:09.882Z,73348
2015-10-29T02:11:22.242Z,73350
2015-10-29T02:11:34.570Z,73346
2015-10-29T02:11:46.900Z,73351
2015-10-29T02:11:59.228Z,73343
2015-10-29T02:12:11.556Z,73352
2015-10-29T02:12:23.884Z,73348
2015-10-29T02:12:36.228Z,73350
2015-10-29T02:12:48.575Z,73352
2015-10-29T02:13:00.934Z,73349
2015-10-29T02:13:13.309Z,73351
2015-10-29T02:13:25.669Z,73349
2015-10-29T02:13:37.997Z,73350
2015-10-29T02:13:50.342Z,73344
2015-10-29T02:14:02.671Z,73351
2015-10-29T02:14:14.999Z,73355
2015-10-29T02:14:27.186Z,73351
2015-10-29T02:14:39.530Z,73356
2015-10-29T02:14:51.892Z,73350
2015-10-29T02:15:04.236Z,73355
2015-10-29T02:15:15.861Z,73354
2015-10-29T02:15:28.174Z,73355
2015-10-29T02:15:40.517Z,73351
2015-10-29T02:15:52.833Z,73354
2015-10-29T02:16:05.161Z,73352
2015-10-29T02:16:17.505Z,73353
2015-10-29T02:16:29.848Z,73352
2015-10-29T02:16:42.208Z,73351
2015-10-29T02:16:54.569Z,73349
2015-10-29T02:17:06.897Z,73356
2015-10-29T02:17:19.225Z,73349
2015-10-29T02:17:31.569Z,73357
2015-10-29T02:17:43.179Z,73346
2015-10-29T02:17:55.511Z,73348
2015-10-29T02:18:07.870Z,73351
2015-10-29T02:18:20.198Z,73348
2015-10-29T02:18:32.558Z,73350
2015-10-29T02:18:44.933Z,73344
2015-10-29T02:18:57.528Z,73345
2015-10-29T02:19:09.841Z,73346
2015-10-29T02:19:22.169Z,73346
2015-10-29T02:19:34.513Z,73351
2015-10-29T02:19:46.841Z,73345
2015-10-29T02:19:59.171Z,73344
2015-10-29T02:20:11.530Z,73349
2015-10-29T02:20:23.905Z,73343
2015-10-29T02:20:36.249Z,73348
2015-10-29T02:20:48.577Z,73344
2015-10-29T02:21:00.909Z,73344
2015-10-29T02:21:13.237Z,73343
2015-10-29T02:21:25.581Z,73348
2015-10-29T02:21:37.909Z,73346
2015-10-29T02:21:50.253Z,73345
2015-10-29T02:22:02.614Z,73347
2015-10-29T02:22:14.958Z,73340
2015-10-29T02:22:27.286Z,73346
2015-10-29T02:22:39.614Z,73344
2015-10-29T02:22:51.958Z,73344
2015-10-29T02:23:04.289Z,73346
2015-10-29T02:23:16.617Z,73343
2015-10-29T02:23:28.961Z,73344
2015-10-29T02:23:41.164Z,73346
2015-10-29T02:23:53.524Z,73352
2015-10-29T02:24:05.855Z,73345
2015-10-29T02:24:18.183Z,73345
2015-10-29T02:24:30.511Z,73345
2015-10-29T02:24:42.839Z,73349
2015-10-29T02:24:55.169Z,73346
2015-10-29T02:25:07.497Z,73344
2015-10-29T02:25:19.841Z,73341
2015-10-29T02:25:32.201Z,73345
2015-10-29T02:25:44.560Z,73345
2015-10-29T02:25:56.907Z,73341
2015-10-29T02:26:09.219Z,73344
2015-10-29T02:26:21.547Z,73346
2015-10-29T02:26:33.875Z,73347
2015-10-29T02:26:46.219Z,73340
2015-10-29T02:26:58.566Z,73346
2015-10-29T02:27:10.941Z,73342
2015-10-29T02:27:22.566Z,73343
2015-10-29T02:27:34.894Z,73337
2015-10-29T02:27:46.519Z,73341
2015-10-29T02:27:58.849Z,73350
2015-10-29T02:28:11.177Z,73340
2015-10-29T02:28:23.505Z,73342
2015-10-29T02:28:35.849Z,73337
2015-10-29T02:28:48.209Z,73339
2015-10-29T02:29:00.571Z,73342
2015-10-29T02:29:12.758Z,73341
2015-10-29T02:29:25.071Z,73342
2015-10-29T02:29:37.383Z,73343
2015-10-29T02:29:49.727Z,73336
2015-10-29T02:30:02.043Z,73343
2015-10-29T02:30:14.386Z,73342
2015-10-29T02:30:26.699Z,73342
2015-10-29T02:30:39.074Z,73342
2015-10-29T02:30:51.402Z,73339
2015-10-29T02:31:03.718Z,73345
2015-10-29T02:31:16.046Z,73338
2015-10-29T02:31:28.374Z,73339
2015-10-29T02:31:40.702Z,73337
2015-10-29T02:31:53.030Z,73340
2015-10-29T02:32:05.360Z,73334
2015-10-29T02:32:17.735Z,73337
2015-10-29T02:32:30.110Z,73337
2015-10-29T02:32:42.438Z,73336
2015-10-29T02:32:54.769Z,73338
2015-10-29T02:33:07.098Z,73337
2015-10-29T02:33:19.426Z,73334
2015-10-29T02:33:31.738Z,73332
2015-10-29T02:33:44.082Z,73338
2015-10-29T02:33:56.429Z,73331
2015-10-29T02:34:08.772Z,73336
2015-10-29T02:34:21.132Z,73332
2015-10-29T02:34:33.460Z,73338
2015-10-29T02:34:45.772Z,73334
2015-10-29T02:34:58.118Z,73337
2015-10-29T02:35:10.462Z,73339
2015-10-29T02:35:22.806Z,73338
2015-10-29T02:35:35.165Z,73339
2015-10-29T02:35:47.524Z,73338
2015-10-29T02:35:59.871Z,73338
2015-10-29T02:36:11.481Z,73342
2015-10-29T02:36:23.824Z,73333
2015-10-29T02:36:36.137Z,73344
2015-10-29T02:36:48.465Z,73339
2015-10-29T02:37:00.796Z,73342
2015-10-29T02:37:13.140Z,73339
2015-10-29T02:37:25.484Z,73345
2015-10-29T02:37:37.843Z,73343
2015-10-29T02:37:50.202Z,73343
2015-10-29T02:38:02.532Z,73343
2015-10-29T02:38:14.876Z,73344
2015-10-29T02:38:27.204Z,73343
2015-10-29T02:38:38.814Z,73344
2015-10-29T02:38:51.142Z,73342
2015-10-29T02:39:03.489Z,73350
2015-10-29T02:39:15.832Z,73345
2015-10-29T02:39:28.176Z,73343